Valenciennes-Denain Airfield

LFAV · Nord-Pas-de-Calais-Picardie, France

6 octobre 2022

Temps Code Temps Temp. Vue Base cloud Vent METAR/SPECI
08:00
V
8 °C 10 km+ - 180° 180° 4 kt METAR LFAQ 060600Z AUTO 18004KT CAVOK 08/08 Q1029
07:30
V
9 °C 10 km+ - 220° 220° 4 kt METAR LFAQ 060530Z AUTO 22004KT CAVOK 09/08 Q1029
07:00
V
9 °C 10 km+ - 220° 220° 6 kt METAR LFAQ 060500Z AUTO 22006KT CAVOK 09/08 Q1029
06:30
V
9 °C 10 km+ 3.600 ft 230° 230° 5 kt METAR LFAQ 060430Z AUTO 23005KT 9999 BKN036 BKN047 09/08 Q1028
06:00
V
9 °C 10 km+ 3.500 ft 200° 200° 5 kt METAR LFAQ 060400Z AUTO 20005KT 9999 BKN035 09/08 Q1028
05:30
V
9 °C 10 km+ 3.900 ft 210° 210° 5 kt METAR LFAQ 060330Z AUTO 21005KT 9999 BKN039 09/08 Q1027
05:00
V
9 °C 10 km+ - 220° 220° 5 kt METAR LFAQ 060300Z AUTO 22005KT 9999 FEW045 SCT056 09/08 Q1027
04:30
V
9 °C 10 km+ - 230° 230° 7 kt METAR LFAQ 060230Z AUTO 23007KT CAVOK 09/08 Q1027
04:00
V
10 °C 10 km+ - 230° 230° 7 kt METAR LFAQ 060200Z AUTO 23007KT 9999 FEW039 10/08 Q1027
03:30
V
10 °C 10 km+ - 230° 230° 6 kt METAR LFAQ 060130Z AUTO 23006KT CAVOK 10/09 Q1026
03:00
V
11 °C 10 km+ - 230° 230° 7 kt METAR LFAQ 060100Z AUTO 23007KT 9999 FEW038 11/09 Q1026
02:30
V
11 °C 10 km+ - 230° 230° 8 kt METAR LFAQ 060030Z AUTO 23008KT CAVOK 11/09 Q1026
02:00
V
11 °C 10 km+ - 230° 230° 7 kt METAR LFAQ 060000Z AUTO 23007KT CAVOK 11/09 Q1025
01:30
V
11 °C 10 km+ - 240° 240° 6 kt METAR LFAQ 052330Z AUTO 24006KT 9999 FEW038 11/10 Q1025
01:00
V
12 °C 10 km+ - 230° 230° 7 kt METAR LFAQ 052300Z AUTO 23007KT 9999 FEW031 SCT038 12/10 Q1024
00:30
V
13 °C 10 km+ - 250° 250° 11 kt METAR LFAQ 052230Z AUTO 25011KT 9999 FEW028 SCT042 13/11 Q1024
00:00
M
14 °C 10 km+ 2.900 ft 260° 260° 10 kt METAR LFAQ 052200Z AUTO 26010KT 9999 BKN029 BKN039 BKN048 14/12 Q1023

5 octobre 2022

Temps Code Temps Temp. Vue Base cloud Vent METAR/SPECI
23:30
M
14 °C 10 km+ 2.500 ft 260° 260° 11 kt METAR LFAQ 052130Z AUTO 26011KT 9999 BKN025 BKN035 BKN050 14/12 Q1023
23:00
M
15 °C 10 km+ 2.200 ft 260° 260° 12 kt METAR LFAQ 052100Z AUTO 26012KT 9999 BKN022 BKN036 BKN050 15/12 Q1022
22:30
V
15 °C 10 km+ 7.000 ft 260° 260° 12 kt METAR LFAQ 052030Z AUTO 26012KT 9999 FEW026 BKN070 OVC084 15/12 Q1021
22:00
V
15 °C 10 km+ - 260° 260° 13 kt METAR LFAQ 052000Z AUTO 26013KT CAVOK 15/12 Q1021
21:30
V
15 °C 10 km+ - 260° 260° 11 kt METAR LFAQ 051930Z AUTO 26011KT CAVOK 15/12 Q1020
21:00
V
15 °C 10 km+ 4.500 ft 260° 260° 10 kt METAR LFAQ 051900Z AUTO 26010KT 9999 SCT038 OVC045 15/12 Q1020
20:30
V
15 °C 10 km+ 3.300 ft 260° 260° 14 kt METAR LFAQ 051830Z AUTO 26014KT 9999 -RADZ FEW022 BKN033 OVC039 15/13 Q1019
20:00
V
18 °C 10 km+ 4.300 ft 220° 220° 18 - 36 kt METAR LFAQ 051800Z AUTO 22018G36KT 9999 FEW022/// SCT033/// OVC043/// ///TCU 18/14 Q1019
19:30
V
18 °C 10 km+ 4.600 ft 220° 220° 14 kt METAR LFAQ 051730Z AUTO 22014KT 9999 SCT040 BKN046 BKN060 18/13 Q1017
19:00
V
18 °C 10 km+ 4.200 ft 230° 230° 17 kt METAR LFAQ 051700Z AUTO 23017KT 9999 SCT031 BKN042 OVC060 18/13 Q1017 TEMPO 26016G28KT 3000 RA BKN008 BKN015
18:30
V
19 °C 10 km+ 4.000 ft 220° 220° 16 kt METAR LFAQ 051630Z AUTO 22016KT 9999 FEW032 BKN040 OVC046 19/13 Q1017 TEMPO 26016G28KT 3000 RA BKN008 BKN015
18:00
V
19 °C 10 km+ 3.800 ft 220° 220° 15 kt METAR LFAQ 051600Z AUTO 22015KT 9999 BKN038 BKN045 OVC058 19/13 Q1016 TEMPO 22016G26KT
17:30
V
19 °C 10 km+ 3.700 ft 210° 210° 14 kt METAR LFAQ 051530Z AUTO 21014KT 9999 BKN037 OVC043 19/13 Q1016 TEMPO 22016G26KT
17:00
V
19 °C 10 km+ 3.700 ft 220° 220° 17 kt METAR LFAQ 051500Z AUTO 22017KT 9999 OVC037 19/13 Q1016 TEMPO 22016G26KT
16:30
V
19 °C 10 km+ 4.200 ft 220° 220° 18 kt METAR LFAQ 051430Z AUTO 22018KT 9999 FEW035 OVC042 19/13 Q1016 TEMPO 22016G26KT
16:00
V
19 °C 10 km+ 3.900 ft 210° 210° 16 kt METAR LFAQ 051400Z AUTO 21016KT 9999 SCT033 BKN039 OVC047 19/13 Q1016 TEMPO 22016G26KT
15:30
V
19 °C 10 km+ 3.900 ft 220° 220° 14 kt METAR LFAQ 051330Z AUTO 22014KT 9999 OVC039 19/13 Q1016 TEMPO 22016G26KT
15:00
V
17 °C 10 km+ 3.800 ft 220° 220° 13 kt METAR LFAQ 051300Z AUTO 22013KT 9999 SCT031 OVC038 17/12 Q1016 TEMPO 22016G26KT
14:30
V
17 °C 10 km+ 3.000 ft 230° 230° 16 kt METAR LFAQ 051230Z AUTO 23016KT 9999 BKN030 OVC035 17/12 Q1016 TEMPO 22016G26KT
14:00
M
17 °C 10 km+ 2.900 ft 220° 220° 17 kt METAR LFAQ 051200Z AUTO 22017KT 9999 OVC029 17/12 Q1016 TEMPO 22016G26KT
13:30
M
17 °C 10 km+ 2.500 ft 220° 220° 16 kt METAR LFAQ 051130Z AUTO 22016KT 9999 OVC025 17/12 Q1016 BECMG 21016G26KT
13:00
M
16 °C 10 km+ 2.400 ft 220° 220° 18 kt METAR LFAQ 051100Z AUTO 22018KT 9999 OVC024 16/12 Q1016 BECMG 21016G26KT
12:30
M
16 °C 10 km+ 2.400 ft 210° 210° 18 kt METAR LFAQ 051030Z AUTO 21018KT 9999 OVC024 16/12 Q1016 BECMG 21016G26KT
12:00
M
16 °C 10 km+ 1.600 ft 220° 220° 15 kt METAR LFAQ 051000Z AUTO 22015KT 9999 BKN016 BKN021 OVC027 16/12 Q1016 BECMG 21016G26KT
11:30
M
16 °C 10 km+ 2.800 ft 200° 200° 13 kt METAR LFAQ 050930Z AUTO 20013KT 9999 SCT016 OVC028 16/13 Q1016 BECMG 21016G26KT
11:00
M
16 °C 10 km+ 2.800 ft 200° 200° 12 kt METAR LFAQ 050900Z AUTO 20012KT 9999 OVC028 16/13 Q1016 BECMG 21016G26KT
10:30
V
15 °C 10 km+ 3.000 ft 200° 200° 12 kt METAR LFAQ 050830Z AUTO 20012KT 9999 OVC030 15/13 Q1016 BECMG 20016G26KT
10:00
V
15 °C 10 km+ 3.100 ft 190° 190° 13 kt METAR LFAQ 050800Z AUTO 19013KT 9999 OVC031 15/12 Q1016 TEMPO BKN012 BECMG 20016G26KT
09:30
V
14 °C 10 km+ 3.000 ft 190° 190° 12 kt METAR LFAQ 050730Z AUTO 19012KT 9999 OVC030 14/12 Q1016 TEMPO BKN012 BECMG 20016G26KT
09:00
V
14 °C 10 km+ 3.100 ft 190° 190° 12 kt METAR LFAQ 050700Z AUTO 19012KT 9999 OVC031 14/12 Q1016 TEMPO BKN012
08:30
V
14 °C 10 km+ 3.400 ft 190° 190° 10 kt METAR LFAQ 050630Z AUTO 19010KT 9999 OVC034 14/12 Q1016 TEMPO BKN012
08:00
V
14 °C 10 km+ 3.400 ft 180° 180° 10 kt METAR LFAQ 050600Z AUTO 18010KT 9999 OVC034 14/12 Q1016 TEMPO BKN012
07:30
V
14 °C 10 km+ 3.400 ft 190° 190° 11 kt METAR LFAQ 050530Z AUTO 19011KT 9999 OVC034 14/12 Q1016
07:00
V
14 °C 10 km+ 3.300 ft 190° 190° 12 kt METAR LFAQ 050500Z AUTO 19012KT 9999 OVC033 14/12 Q1016
06:30
V
14 °C 10 km+ 3.200 ft 190° 190° 10 kt METAR LFAQ 050430Z AUTO 19010KT 9999 OVC032 14/12 Q1017
06:00
V
14 °C 10 km+ 3.100 ft 200° 200° 11 kt METAR LFAQ 050400Z AUTO 20011KT 9999 OVC031 14/12 Q1017
05:30
V
14 °C 10 km+ 3.100 ft 190° 190° 8 kt METAR LFAQ 050330Z AUTO 19008KT 9999 OVC031 14/12 Q1017
05:00
V
14 °C 10 km+ 3.100 ft 190° 190° 7 kt METAR LFAQ 050300Z AUTO 19007KT 9999 OVC031 14/12 Q1017
04:30
V
14 °C 10 km+ 3.200 ft 180° 180° 7 kt METAR LFAQ 050230Z AUTO 18007KT 9999 OVC032 14/11 Q1017
04:00
V
14 °C 10 km+ 3.000 ft 200° 200° 7 kt METAR LFAQ 050200Z AUTO 20007KT 9999 OVC030 14/12 Q1018
03:30
M
15 °C 10 km+ 2.800 ft 210° 210° 9 kt METAR LFAQ 050130Z AUTO 21009KT 9999 OVC028 15/12 Q1018
03:00
M
15 °C 10 km+ 2.800 ft 210° 210° 10 kt METAR LFAQ 050100Z AUTO 21010KT 9999 OVC028 15/12 Q1018
02:30
M
14 °C 10 km+ 2.800 ft 210° 210° 6 kt METAR LFAQ 050030Z AUTO 21006KT 9999 OVC028 14/12 Q1019
02:00
M
14 °C 10 km+ 2.900 ft 220° 220° 7 kt METAR LFAQ 050000Z AUTO 22007KT 9999 OVC029 14/12 Q1019
01:30
M
14 °C 10 km+ 2.800 ft 200° 200° 6 kt METAR LFAQ 042330Z AUTO 20006KT 9999 OVC028 14/12 Q1019
01:00
M
14 °C 10 km+ 2.700 ft 210° 210° 6 kt METAR LFAQ 042300Z AUTO 21006KT 9999 OVC027 14/13 Q1019
00:30
M
14 °C 10 km+ 2.800 ft 190° 190° 6 kt METAR LFAQ 042230Z AUTO 19006KT 9999 OVC028 14/12 Q1019
00:00
M
14 °C 10 km+ 2.900 ft 230° 230° 6 kt METAR LFAQ 042200Z AUTO 23006KT 9999 OVC029 14/13 Q1019

4 octobre 2022

Temps Code Temps Temp. Vue Base cloud Vent METAR/SPECI
23:30
V
14 °C 10 km+ 3.200 ft 220° 220° 6 kt METAR LFAQ 042130Z AUTO 22006KT 9999 OVC032 14/13 Q1019
23:00
V
14 °C 10 km+ 3.400 ft 200° 200° 7 kt METAR LFAQ 042100Z AUTO 20007KT 9999 OVC034 14/13 Q1019
22:30
V
14 °C 10 km+ 3.400 ft 190° 190° 6 kt METAR LFAQ 042030Z AUTO 19006KT 9999 OVC034 14/13 Q1019
22:00
V
14 °C 10 km+ 3.600 ft 190° 190° 7 kt METAR LFAQ 042000Z AUTO 19007KT 9999 OVC036 14/13 Q1019
21:30
V
15 °C 10 km+ 3.600 ft 190° 190° 6 kt METAR LFAQ 041930Z AUTO 19006KT 9999 OVC036 15/13 Q1019
21:00
V
15 °C 10 km+ 3.300 ft 200° 200° 6 kt METAR LFAQ 041900Z AUTO 20006KT 9999 OVC033 15/13 Q1019
20:30
V
15 °C 10 km+ 3.300 ft 180° 180° 4 kt METAR LFAQ 041830Z AUTO 18004KT 9999 OVC033 15/13 Q1019
20:00
V
15 °C 10 km+ 3.500 ft 170° 170° 4 kt METAR LFAQ 041800Z AUTO 17004KT 9999 BKN035 15/13 Q1019
19:30
V
16 °C 10 km+ 3.600 ft 180° 180° 3 kt METAR LFAQ 041730Z AUTO 18003KT 9999 OVC036 16/13 Q1019 NOSIG
19:00
V
16 °C 10 km+ 3.600 ft 200° 200° 5 kt METAR LFAQ 041700Z AUTO 20005KT 9999 BKN036 16/13 Q1019 NOSIG
18:30
V
17 °C 10 km+ 3.500 ft 210° 210° 6 kt METAR LFAQ 041630Z AUTO 21006KT 9999 OVC035 17/13 Q1019 NOSIG
18:00
V
17 °C 10 km+ 3.200 ft 190° 190° 7 kt METAR LFAQ 041600Z AUTO 19007KT 9999 OVC032 17/13 Q1019 NOSIG
17:30
V
17 °C 10 km+ 3.500 ft 200° 200° 10 kt METAR LFAQ 041530Z AUTO 20010KT 9999 SCT029 BKN035 17/13 Q1019 NOSIG
17:00
M
17 °C 10 km+ 2.800 ft 180° 180° 8 kt METAR LFAQ 041500Z AUTO 18008KT 9999 BKN028 BKN034 17/13 Q1019 NOSIG
16:30
V
18 °C 10 km+ 3.200 ft 180° 180° 9 kt METAR LFAQ 041430Z AUTO 18009KT 150V210 9999 SCT022 BKN032 18/13 Q1019 NOSIG
16:00
V
18 °C 10 km+ - 160° 160° 9 kt METAR LFAQ 041400Z AUTO 16009KT 9999 FEW021 18/13 Q1020 NOSIG
15:30
V
18 °C 10 km+ - 170° 170° 10 kt METAR LFAQ 041330Z AUTO 17010KT 9999 FEW016 18/13 Q1020 NOSIG
15:00
V
17 °C 10 km+ - 170° 170° 8 kt METAR LFAQ 041300Z AUTO 17008KT 140V200 9999 SCT016 17/13 Q1020 NOSIG
14:30
V
16 °C 10 km+ - 200° 200° 8 kt METAR LFAQ 041230Z AUTO 20008KT 170V230 9999 SCT015 16/13 Q1020 NOSIG
14:00
V
16 °C 9 km - 190° 190° 10 kt METAR LFAQ 041200Z AUTO 19010KT 9000 NSC 16/13 Q1021 NOSIG
13:30
V
15 °C 9 km - 200° 200° 10 kt METAR LFAQ 041130Z AUTO 20010KT 160V220 9000 FEW012 15/13 Q1021 NOSIG
13:00
V
14 °C 9 km - 190° 190° 9 kt METAR LFAQ 041100Z AUTO 19009KT 160V220 9000 SCT010 14/13 Q1021 NOSIG
12:30
V
13 °C 9 km - 190° 190° 8 kt METAR LFAQ 041030Z AUTO 19008KT 150V210 9000 SCT003 SCT007 13/13 Q1021 NOSIG
12:00
L
12 °C 3,5 km - 170° 170° 9 kt METAR LFAQ 041000Z AUTO 17009KT 3500 BR VV/// 12/12 Q1021 BECMG 8000 NSW BKN030
11:30
L
10 °C 250 m - 150° 150° 8 kt METAR LFAQ 040930Z AUTO 15008KT 0250 R27/0350N FG VV/// 10/10 Q1021 BECMG 8000 NSW BKN030
11:00
L
9 °C 200 m - 160° 160° 6 kt METAR LFAQ 040900Z AUTO 16006KT 0200 R27/0250N FG VV/// 09/09 Q1021 BECMG 8000 NSW BKN003
10:30
L
8 °C 150 m - 140° 140° 5 kt METAR LFAQ 040830Z AUTO 14005KT 0200 0150 R27/0225N FG VV/// 08/08 Q1021 BECMG 8000 NSW BKN003
10:00
L
7 °C 150 m - 160° 160° 5 kt METAR LFAQ 040800Z AUTO 16005KT 0200 0150 R27/0225N FG VV/// 07/07 Q1021 BECMG 3000 BR OVC002
09:30
L
7 °C 200 m - 170° 170° 5 kt METAR LFAQ 040730Z AUTO 17005KT 0200 R27/0250N FG VV/// 07/07 Q1021 BECMG 3000 BR OVC002
09:00
L
6 °C 150 m - 160° 160° 5 kt METAR LFAQ 040700Z AUTO 16005KT 0200 0150 R27/0225N FG VV/// 06/06 Q1021 BECMG 3000 BR OVC002
08:30
L
6 °C 200 m - 190° 190° 3 kt METAR LFAQ 040630Z AUTO 19003KT 0200 R27/0275N FG VV/// 06/06 Q1021 BECMG 3000 BR OVC002
08:00
L
6 °C 200 m - 150° 150° 3 kt METAR LFAQ 040600Z AUTO 15003KT 0250 0200 R27/0275N FG VV/// 06/06 Q1021 NOSIG
07:30
L
6 °C 250 m - 160° 160° 5 kt METAR LFAQ 040530Z AUTO 16005KT 0300 0250 R27/0350N FG VV/// 06/06 Q1021
07:00
L
6 °C 200 m - 170° 170° 4 kt METAR LFAQ 040500Z AUTO 17004KT 0250 0200 R27/0300N FG VV/// 06/06 Q1021
Données plus anciennes

Nous et des tiers suivons ton comportement sur Internet sur notre site Web à l'aide de cookies. Si tu continues, nous supposons que tu acceptes notre politique en matière de cookies. Apprendre plus